Map

Track Data

SID SEASON NUMBER BASIN SUBBASIN NAME ISO_TIME NATURE LAT LON WMO_WIND WMO_PRES WMO_AGENCY TRACK_TYPE DIST2LAND LANDFALL IFLAG USA_AGENCY USA_ATCF_ID USA_LAT USA_LON USA_RECORD USA_STATUS USA_WIND USA_PRES USA_SSHS USA_R34_NE USA_R34_SE USA_R34_SW USA_R34_NW USA_R50_NE USA_R50_SE USA_R50_SW USA_R50_NW USA_R64_NE USA_R64_SE USA_R64_SW USA_R64_NW USA_POCI USA_ROCI USA_RMW USA_EYE TOKYO_LAT TOKYO_LON TOKYO_GRADE TOKYO_WIND TOKYO_PRES TOKYO_R50_DIR TOKYO_R50_LONG TOKYO_R50_SHORT TOKYO_R30_DIR TOKYO_R30_LONG TOKYO_R30_SHORT TOKYO_LAND CMA_LAT CMA_LON CMA_CAT CMA_WIND CMA_PRES HKO_LAT HKO_LON HKO_CAT HKO_WIND HKO_PRES NEWDELHI_LAT NEWDELHI_LON NEWDELHI_GRADE NEWDELHI_WIND NEWDELHI_PRES NEWDELHI_CI NEWDELHI_DP NEWDELHI_POCI REUNION_LAT REUNION_LON REUNION_TYPE REUNION_WIND REUNION_PRES REUNION_TNUM REUNION_CI REUNION_RMW REUNION_R34_NE REUNION_R34_SE REUNION_R34_SW REUNION_R34_NW REUNION_R50_NE REUNION_R50_SE REUNION_R50_SW REUNION_R50_NW REUNION_R64_NE REUNION_R64_SE REUNION_R64_SW REUNION_R64_NW BOM_LAT BOM_LON BOM_TYPE BOM_WIND BOM_PRES BOM_TNUM BOM_CI BOM_RMW BOM_R34_NE BOM_R34_SE BOM_R34_SW BOM_R34_NW BOM_R50_NE BOM_R50_SE BOM_R50_SW BOM_R50_NW BOM_R64_NE BOM_R64_SE BOM_R64_SW BOM_R64_NW BOM_ROCI BOM_POCI BOM_EYE BOM_POS_METHOD BOM_PRES_METHOD NADI_LAT NADI_LON NADI_CAT NADI_WIND NADI_PRES WELLINGTON_LAT WELLINGTON_LON WELLINGTON_WIND WELLINGTON_PRES DS824_LAT DS824_LON DS824_STAGE DS824_WIND DS824_PRES TD9636_LAT TD9636_LON TD9636_STAGE TD9636_WIND TD9636_PRES TD9635_LAT TD9635_LON TD9635_WIND TD9635_PRES TD9635_ROCI NEUMANN_LAT NEUMANN_LON NEUMANN_CLASS NEUMANN_WIND NEUMANN_PRES MLC_LAT MLC_LON MLC_CLASS MLC_WIND MLC_PRES USA_GUST BOM_GUST BOM_GUST_PER REUNION_GUST REUNION_GUST_PER USA_SEAHGT USA_SEARAD_NE USA_SEARAD_SE USA_SEARAD_SW USA_SEARAD_NW STORM_SPEED STORM_DIR
1969088S10097 1969 21 SI WA LEONIE 1969-03-28 22:00:00 NR -10.0000 97.0000 main 891 891 __________O___ -1 -10.0000 97.0000 1 10 7 154
1969088S10097 1969 21 SI WA LEONIE 1969-03-29 00:00:00 TS -10.2041 97.0970 main 901 901 O________OP_O_ jtwc_sh SH301969 -10.2000 97.1000 10 -1 -10.2000 97.1000 TC 10 -10.2122 97.0910 1 10 -10.2000 97.1000 TC 10 8 159
1969088S10097 1969 21 SI WA LEONIE 1969-03-29 03:00:00 TS -10.5903 97.2338 main 928 921 P________PP_P_ SH301969 -10.6075 97.2324 12 -1 -10.6075 97.2324 TC 12 -10.5446 97.2373 1 12 -10.6075 97.2324 TC 12 8 159
1969088S10097 1969 21 SI WA LEONIE 1969-03-29 06:00:00 TS -10.9784 97.4020 main 947 947 O________OP_O_ jtwc_sh SH301969 -11.0000 97.4000 15 -1 -11.0000 97.4000 TC 15 -10.9135 97.4081 1 13 -11.0000 97.4000 TC 15 9 154
1969088S10097 1969 21 SI WA LEONIE 1969-03-29 09:00:00 TS -11.3702 97.6258 main 968 962 P________PP_P_ SH301969 -11.3775 97.6276 15 -1 -11.3775 97.6276 TC 15 -11.3408 97.6185 1 14 -11.3775 97.6276 TC 15 9 150
1969088S10097 1969 21 SI WA LEONIE 1969-03-29 10:00:00 TS -11.5077 97.7118 main 971 971 P________PO_P_ SH301969 -11.5096 97.7147 15 -1 -11.5096 97.7147 TC 15 -11.5000 97.7000 1 15 -11.5096 97.7147 TC 15 10 149
1969088S10097 1969 21 SI WA LEONIE 1969-03-29 12:00:00 TS -11.8088 97.8961 main 977 975 O________OP_O_ jtwc_sh SH301969 -11.8000 97.9000 15 -1 -11.8000 97.9000 TC 15 -11.8442 97.8804 1 14 -11.8000 97.9000 TC 15 12 150
1969088S10097 1969 21 SI WA LEONIE 1969-03-29 15:00:00 TS -12.3587 98.2120 main 991 988 P________PP_P_ SH301969 -12.3501 98.2223 12 -1 -12.3501 98.2223 TC 12 -12.3930 98.1709 1 12 -12.3501 98.2223 TC 12 12 152
1969088S10097 1969 21 SI WA LEONIE 1969-03-29 18:00:00 TS -12.9050 98.4888 main 1002 1002 O________OP_O_ jtwc_sh SH301969 -12.9000 98.5000 10 -1 -12.9000 98.5000 TC 10 -12.9249 98.4441 1 11 -12.9000 98.5000 TC 10 11 157
1969088S10097 1969 21 SI WA LEONIE 1969-03-29 21:00:00 TS -13.3695 98.6527 main 1026 1026 P________PP_P_ SH301969 -13.3674 98.6526 10 -1 -13.3674 98.6526 TC 10 -13.3775 98.6529 1 10 -13.3674 98.6526 TC 10 9 162
1969088S10097 1969 21 SI WA LEONIE 1969-03-29 22:00:00 TS -13.4976 98.6831 main 1034 1034 P________PO_P_ SH301969 -13.4970 98.6789 10 -1 -13.4970 98.6789 TC 10 -13.5000 98.7000 1 10 -13.4970 98.6789 TC 10 7 171
1969088S10097 1969 21 SI WA LEONIE 1969-03-30 00:00:00 TS -13.6964 98.7082 main 1050 1050 O________OP_O_ jtwc_sh SH301969 -13.7000 98.7000 10 -1 -13.7000 98.7000 TC 10 -13.6819 98.7409 1 11 -13.7000 98.7000 TC 10 4 0
1969088S10097 1969 21 SI WA LEONIE 1969-03-30 03:00:00 TS -13.8541 98.6893 main 1066 1066 P________PP_P_ SH301969 -13.8525 98.6801 12 -1 -13.8525 98.6801 TC 12 -13.8607 98.7263 1 14 -13.8525 98.6801 TC 12 2 204
1969088S10097 1969 21 SI WA LEONIE 1969-03-30 06:00:00 TS -13.9108 98.6096 main 1074 1074 O________OP_O_ jtwc_sh SH301969 -13.9000 98.6000 15 -1 -13.9000 98.6000 TC 15 -13.9542 98.6482 1 16 -13.9000 98.6000 TC 15 2 235
1969088S10097 1969 21 SI WA LEONIE 1969-03-30 09:00:00 TS -13.9767 98.5137 main 1089 1089 P________PP_P_ SH301969 -13.9725 98.5075 17 -1 -13.9725 98.5075 TC 17 -13.9935 98.5383 1 19 -13.9725 98.5075 TC 17 2 238
1969088S10097 1969 21 SI WA LEONIE 1969-03-30 10:00:00 TS -13.9903 98.4777 main 1089 1089 P________PO_P_ SH301969 -13.9879 98.4721 18 -1 -13.9879 98.4721 TC 18 -14.0000 98.5000 1 20 -13.9879 98.4721 TC 18 2 256
1969088S10097 1969 21 SI WA LEONIE 1969-03-30 12:00:00 TS -14.0020 98.4074 main 1097 1097 O________OP_O_ jtwc_sh SH301969 -14.0000 98.4000 20 -1 -14.0000 98.4000 TC 20 -14.0102 98.4368 1 19 -14.0000 98.4000 TC 20 2 282
1969088S10097 1969 21 SI WA LEONIE 1969-03-30 15:00:00 TS -13.9527 98.2998 main 1104 1096 P________PP_P_ SH301969 -13.9425 98.2925 17 -1 -13.9425 98.2925 TC 17 -13.9936 98.3293 1 17 -13.9425 98.2925 TC 17 2 294
1969088S10097 1969 21 SI WA LEONIE 1969-03-30 18:00:00 TS -13.9144 98.2041 main 1103 1103 O________OP_O_ jtwc_sh SH301969 -13.9000 98.2000 15 -1 -13.9000 98.2000 TC 15 -13.9719 98.2204 1 16 -13.9000 98.2000 TC 15 2 263
1969088S10097 1969 21 SI WA LEONIE 1969-03-30 21:00:00 TS -13.9725 98.1392 main 1119 1119 P________PP_P_ SH301969 -13.9700 98.1425 15 -1 -13.9700 98.1425 TC 15 -13.9827 98.1257 1 15 -13.9700 98.1425 TC 15 2 222
1969088S10097 1969 21 SI WA LEONIE 1969-03-30 22:00:00 TS -14.0073 98.1223 main 1119 1119 P________PO_P_ SH301969 -14.0091 98.1279 15 -1 -14.0091 98.1279 TC 15 -14.0000 98.1000 1 15 -14.0091 98.1279 TC 15 3 194
1969088S10097 1969 21 SI WA LEONIE 1969-03-31 00:00:00 TS -14.0938 98.0927 main 1127 1127 O________OP_O_ jtwc_sh SH301969 -14.1000 98.1000 15 -1 -14.1000 98.1000 TC 15 -14.0688 98.0636 1 17 -14.1000 98.1000 TC 15 3 199
1969088S10097 1969 21 SI WA LEONIE 1969-03-31 03:00:00 TS -14.2252 98.0396 main 1143 1143 P________PP_P_ SH301969 -14.2275 98.0425 20 -1 -14.2275 98.0425 TC 20 -14.2160 98.0278 1 21 -14.2275 98.0425 TC 20 3 196
1969088S10097 1969 21 SI WA LEONIE 1969-03-31 06:00:00 TS -14.4010 98.0018 main 1159 1159 O________OP_O_ jtwc_sh SH301969 -14.4000 98.0000 25 -1 -14.4000 98.0000 TC 25 -14.4049 98.0092 1 25 -14.4000 98.0000 TC 25 4 185
1969088S10097 1969 21 SI WA LEONIE 1969-03-31 09:00:00 TS -14.6326 97.9942 main 1175 1175 P________PP_P_ SH301969 -14.6350 97.9925 27 -1 -14.6350 97.9925 TC 27 -14.6230 98.0013 1 28 -14.6350 97.9925 TC 27 5 0
1969088S10097 1969 21 SI WA LEONIE 1969-03-31 10:00:00 TS -14.7180 97.9957 main 1183 1183 P________PO_P_ SH301969 -14.7225 97.9946 28 -1 -14.7225 97.9946 TC 28 -14.7000 98.0000 1 30 -14.7225 97.9946 TC 28 5 0
1969088S10097 1969 21 SI WA LEONIE 1969-03-31 12:00:00 TS -14.8899 97.9968 main 1200 1200 O________OP_O_ jtwc_sh SH301969 -14.9000 98.0000 30 -1 -14.9000 98.0000 TC 30 -14.8495 97.9839 1 31 -14.9000 98.0000 TC 30 5 180
1969088S10097 1969 21 SI WA LEONIE 1969-03-31 15:00:00 TS -15.1385 97.9931 main 1217 1225 P________PP_P_ SH301969 -15.1500 98.0000 35 0 -15.1500 98.0000 TC 35 -15.0927 97.9657 1 34 -15.1500 98.0000 TC 35 5 182
1969088S10097 1969 21 SI WA LEONIE 1969-03-31 18:00:00 TS -15.3901 97.9926 main 1242 1242 O________OP_O_ jtwc_sh SH301969 -15.4000 98.0000 40 0 -15.4000 98.0000 TC 40 -15.3503 97.9632 1 36 -15.4000 98.0000 TC 40 5 0
1969088S10097 1969 21 SI WA LEONIE 1969-03-31 21:00:00 TS -15.6426 97.9851 main 1259 1268 P________PP_P_ SH301969 -15.6500 97.9851 40 0 -15.6500 97.9851 TC 40 -15.6130 97.9854 1 39 -15.6500 97.9851 TC 40 5 0
1969088S10097 1969 21 SI WA LEONIE 1969-03-31 22:00:00 TS -15.7267 97.9874 main 1268 1268 P________PO_P_ SH301969 -15.7333 97.9843 40 0 -15.7333 97.9843 TC 40 -15.7000 98.0000 2 40 -15.7333 97.9843 TC 40 5 180
1969088S10097 1969 21 SI WA LEONIE 1969-04-01 00:00:00 TS -15.8928 98.0082 main 1286 1286 O________OP_O_ jtwc_sh SH301969 -15.9000 98.0000 40 0 -15.9000 98.0000 TC 40 -15.8640 98.0412 2 37 -15.9000 98.0000 TC 40 5 167
1969088S10097 1969 21 SI WA LEONIE 1969-04-01 03:00:00 TS -16.1420 98.0876 main 1297 1306 P________PP_P_ SH301969 -16.1500 98.0775 35 0 -16.1500 98.0775 TC 35 -16.1101 98.1282 2 33 -16.1500 98.0775 TC 35 5 159
1969088S10097 1969 21 SI WA LEONIE 1969-04-01 06:00:00 TS -16.3918 98.2074 main 1317 1317 O________OP_O_ jtwc_sh SH301969 -16.4000 98.2000 30 -1 -16.4000 98.2000 TC 30 -16.3588 98.2370 2 29 -16.4000 98.2000 TC 30 6 154
1969088S10097 1969 21 SI WA LEONIE 1969-04-01 09:00:00 TS -16.6427 98.3457 main 1329 1332 P________PP_P_ SH301969 -16.6500 98.3425 27 -1 -16.6500 98.3425 TC 27 -16.6133 98.3584 2 26 -16.6500 98.3425 TC 27 6 151
1969088S10097 1969 21 SI WA LEONIE 1969-04-01 10:00:00 TS -16.7267 98.3957 main 1332 1332 P________PO_P_ SH301969 -16.7333 98.3946 26 -1 -16.7333 98.3946 TC 26 -16.7000 98.4000 1 25 -16.7333 98.3946 TC 26 6 149
1969088S10097 1969 21 SI WA LEONIE 1969-04-01 12:00:00 TS -16.8924 98.4976 main 1345 1345 O________OP_O_ jtwc_sh SH301969 -16.9000 98.5000 25 -1 -16.9000 98.5000 TC 25 -16.8619 98.4881 1 23 -16.9000 98.5000 TC 25 6 149
1969088S10097 1969 21 SI WA LEONIE 1969-04-01 15:00:00 TS -17.1362 98.6573 main 1352 1362 P________PP_P_ SH301969 -17.1425 98.6650 20 -1 -17.1425 98.6650 TC 20 -17.1108 98.6267 1 20 -17.1425 98.6650 TC 20 6 151
1969088S10097 1969 21 SI WA LEONIE 1969-04-01 18:00:00 TS -17.3961 98.7919 main 1375 1375 O________OP_O_ jtwc_sh SH301969 -17.4000 98.8000 15 -1 -17.4000 98.8000 TC 15 -17.3806 98.7594 1 18 -17.4000 98.8000 TC 15 6 160
1969088S10097 1969 21 SI WA LEONIE 1969-04-01 21:00:00 TS -17.6734 98.8662 main 1399 1399 P________PP_P_ SH301969 -17.6700 98.8651 15 -1 -17.6700 98.8651 TC 15 -17.6870 98.8705 1 15 -17.6700 98.8651 TC 15 6 166
1969088S10097 1969 21 SI WA LEONIE 1969-04-01 22:00:00 TS -17.7767 98.8821 main 1408 1408 P________PO_P_ SH301969 -17.7708 98.8776 15 -1 -17.7708 98.8776 TC 15 -17.8000 98.9000 1 15 -17.7708 98.8776 TC 15 7 172
1969088S10097 1969 21 SI WA LEONIE 1969-04-02 00:00:00 TS -18.0082 98.9085 main 1428 1428 O________OP_O_ jtwc_sh SH301969 -18.0000 98.9000 15 -1 -18.0000 98.9000 TC 15 -18.0412 98.9423 1 15 -18.0000 98.9000 TC 15 8 173
1969088S10097 1969 21 SI WA LEONIE 1969-04-02 03:00:00 TS -18.4301 98.9620 main 1462 1472 P________PP_P_ SH301969 -18.4275 98.9575 15 -1 -18.4275 98.9575 TC 15 -18.4407 98.9804 1 17 -18.4275 98.9575 TC 15 9 174
1969088S10097 1969 21 SI WA LEONIE 1969-04-02 06:00:00 TS -18.8954 98.9993 main 1511 1511 O________OP_O_ jtwc_sh SH301969 -18.9000 99.0000 15 -1 -18.9000 99.0000 TC 15 -18.8770 98.9965 1 18 -18.9000 99.0000 TC 15 9 178
1969088S10097 1969 21 SI WA LEONIE 1969-04-02 09:00:00 TS -19.3362 99.0061 main 1551 1553 P________PP_P_ SH301969 -19.3350 99.0076 17 -1 -19.3350 99.0076 TC 17 -19.3409 99.0000 1 19 -19.3350 99.0076 TC 17 9 178
1969088S10097 1969 21 SI WA LEONIE 1969-04-02 10:00:00 TS -19.4874 99.0044 main 1553 1544 P________PO_P_ SH301969 -19.4842 99.0055 18 -1 -19.4842 99.0055 TC 18 -19.5000 99.0000 1 20 -19.4842 99.0055 TC 18 10 0
1969088S10097 1969 21 SI WA LEONIE 1969-04-02 12:00:00 TS -19.8111 99.0012 main 1544 1529 O________OP_O_ jtwc_sh SH301969 -19.8000 99.0000 20 -1 -19.8000 99.0000 TC 20 -19.8555 99.0058 1 21 -19.8000 99.0000 TC 20 11 0
1969088S10097 1969 21 SI WA LEONIE 1969-04-02 15:00:00 TS -20.3677 99.0016 main 1529 1518 P________PP_P_ SH301969 -20.3575 99.0000 25 -1 -20.3575 99.0000 TC 25 -20.4086 99.0081 1 24 -20.3575 99.0000 TC 25 11 0
1969088S10097 1969 21 SI WA LEONIE 1969-04-02 18:00:00 TS -20.9071 99.0011 main 1518 1510 O________OP_O_ jtwc_sh SH301969 -20.9000 99.0000 30 -1 -20.9000 99.0000 TC 30 -20.9355 99.0055 1 26 -20.9000 99.0000 TC 30 10 181
1969088S10097 1969 21 SI WA LEONIE 1969-04-02 21:00:00 TS -21.3700 99.0003 main 1510 1508 P________PP_P_ SH301969 -21.3675 99.0000 30 -1 -21.3675 99.0000 TC 30 -21.3799 99.0013 1 29 -21.3675 99.0000 TC 30 9 182
1969088S10097 1969 21 SI WA LEONIE 1969-04-02 22:00:00 TS -21.4976 99.0000 main 1508 1502 P________PO_P_ SH301969 -21.4970 99.0000 30 -1 -21.4970 99.0000 TC 30 -21.5000 99.0000 1 30 -21.4970 99.0000 TC 30 7 0
1969088S10097 1969 21 SI WA LEONIE 1969-04-03 00:00:00 TS -21.6964 99.0000 main 1502 1497 O________OP_O_ jtwc_sh SH301969 -21.7000 99.0000 30 -1 -21.7000 99.0000 TC 30 -21.6821 99.0000 1 29 -21.7000 99.0000 TC 30 4 0
1969088S10097 1969 21 SI WA LEONIE 1969-04-03 03:00:00 TS -21.8542 99.0000 main 1497 1497 P________PP_P_ SH301969 -21.8525 99.0000 30 -1 -21.8525 99.0000 TC 30 -21.8608 99.0000 1 27 -21.8525 99.0000 TC 30 2 0
1969088S10097 1969 21 SI WA LEONIE 1969-04-03 06:00:00 TS -21.9109 99.0000 main 1497 1494 O________OP_O_ jtwc_sh SH301969 -21.9000 99.0000 30 -1 -21.9000 99.0000 TC 30 -21.9543 99.0000 1 26 -21.9000 99.0000 TC 30 1 168
1969088S10097 1969 21 SI WA LEONIE 1969-04-03 09:00:00 TS -21.9767 99.0000 main 1494 1494 P________PP_P_ SH301969 -21.9725 99.0000 27 -1 -21.9725 99.0000 TC 27 -21.9935 99.0000 1 25 -21.9725 99.0000 TC 27 1 0
1969088S10097 1969 21 SI WA LEONIE 1969-04-03 10:00:00 TS -21.9903 99.0000 main 1494 1494 P________PO_P_ SH301969 -21.9879 99.0000 26 -1 -21.9879 99.0000 TC 26 -22.0000 99.0000 1 25 -21.9879 99.0000 TC 26 0 0
1969088S10097 1969 21 SI WA LEONIE 1969-04-03 12:00:00 TS -21.9978 98.9964 main 1494 1494 O________OP_O_ jtwc_sh SH301969 -22.0000 99.0000 25 -1 -22.0000 99.0000 TC 25 -21.9892 98.9818 1 23 -22.0000 99.0000 TC 25 1 346
1969088S10097 1969 21 SI WA LEONIE 1969-04-03 15:00:00 TS -21.9361 98.9908 main 1497 1497 P________PP_P_ SH301969 -21.9350 99.0000 22 -1 -21.9350 99.0000 TC 22 -21.9405 98.9542 1 20 -21.9350 99.0000 TC 22 1 353
1969088S10097 1969 21 SI WA LEONIE 1969-04-03 18:00:00 TS -21.9017 98.9891 main 1497 1494 O________OP_O_ jtwc_sh SH301969 -21.9000 99.0000 20 -1 -21.9000 99.0000 TC 20 -21.9085 98.9453 1 18 -21.9000 99.0000 TC 20 1 0
1969088S10097 1969 21 SI WA LEONIE 1969-04-03 21:00:00 TS -21.9831 98.9715 main 1494 1494 P________PP_P_ SH301969 -21.9900 98.9702 17 -1 -21.9900 98.9702 TC 17 -21.9558 98.9768 1 15 -21.9900 98.9702 TC 17 2 188
1969088S10097 1969 21 SI WA LEONIE 1969-04-03 22:00:00 TS -22.0373 98.9749 main 1494 1489 P________PO_P_ SH301969 -22.0466 98.9686 16 -1 -22.0466 98.9686 TC 16 -22.0000 99.0000 1 15 -22.0466 98.9686 TC 16 4 172
1969088S10097 1969 21 SI WA LEONIE 1969-04-04 00:00:00 TS -22.1902 99.0133 main 1489 1462 O________OP_O_ jtwc_sh SH301969 -22.2000 99.0000 15 -1 -22.2000 99.0000 TC 15 -22.1512 99.0663 1 15 -22.2000 99.0000 TC 15 6 158
1969088S10097 1969 21 SI WA LEONIE 1969-04-04 03:00:00 TS -22.4985 99.1779 main 1462 1434 P________PP_P_ SH301969 -22.5051 99.1699 15 -1 -22.5051 99.1699 TC 15 -22.4724 99.2097 1 15 -22.5051 99.1699 TC 15 8 153
1969088S10097 1969 21 SI WA LEONIE 1969-04-04 06:00:00 TS -22.8958 99.3995 main 1434 1407 O________OP_O_ jtwc_sh SH301969 -22.9000 99.4000 15 -1 -22.9000 99.4000 TC 15 -22.8790 99.3974 1 15 -22.9000 99.4000 TC 15 9 155
1969088S10097 1969 21 SI WA LEONIE 1969-04-04 09:00:00 TS -23.3299 99.6040 main 1407 1394 P________PP_P_ SH301969 -23.3275 99.6001 15 -1 -23.3275 99.6001 TC 15 -23.3398 99.6198 1 15 -23.3275 99.6001 TC 15 10 157
1969088S10097 1969 21 SI WA LEONIE 1969-04-04 10:00:00 TS -23.4850 99.6734 main 1394 1380 P________PO_P_ SH301969 -23.4812 99.6668 15 -1 -23.4812 99.6668 TC 15 -23.5000 99.7000 1 15 -23.4812 99.6668 TC 15 10 159
1969088S10097 1969 21 SI WA LEONIE 1969-04-04 12:00:00 TS -23.8007 99.7984 main 1380 1351 O________OP_O_ jtwc_sh SH301969 -23.8000 99.8000 15 -1 -23.8000 99.8000 TC 15 -23.8033 99.7918 1 17 -23.8000 99.8000 TC 15 10 162
1969088S10097 1969 21 SI WA LEONIE 1969-04-04 15:00:00 TS -24.2918 99.9551 main 1351 1321 P________PP_P_ SH301969 -24.2922 99.9557 20 -1 -24.2922 99.9557 TC 20 -24.2900 99.9527 1 21 -24.2922 99.9557 TC 20 11 160
1969088S10097 1969 21 SI WA LEONIE 1969-04-04 18:00:00 TS -24.8004 100.201 main 1321 1274 O________OP_O_ jtwc_sh SH301969 -24.8000 100.200 25 -1 -24.8000 100.200 TC 25 -24.8022 100.203 1 25 -24.8000 100.200 TC 25 12 150
1969088S10097 1969 21 SI WA LEONIE 1969-04-04 21:00:00 TS -25.2984 100.586 main 1274 1262 P________PP_P_ SH301969 -25.2993 100.588 27 -1 -25.2993 100.588 TC 27 -25.3256 100.615 1 28 -25.2686 100.552 TC 27 13 143
1969088S10097 1969 21 SI WA LEONIE 1969-04-04 22:00:00 TS -25.4663 100.763 main 1251 1208 P________PO_P_ SH301969 -25.4659 100.764 28 -1 -25.4659 100.764 TC 28 -25.5000 100.800 1 30 -25.4337 100.726 TC 28 15 132
1969088S10097 1969 21 SI WA LEONIE 1969-04-05 00:00:00 TS -25.8069 101.213 main 1208 1115 O________OP_O_ jtwc_sh SH301969 -25.8000 101.200 30 -1 -25.8000 101.200 TC 30 -25.8344 101.263 1 28 -25.8000 101.200 TC 30 18 125
1969088S10097 1969 21 SI WA LEONIE 1969-04-05 03:00:00 TS -26.3356 102.136 main 1115 1005 P________PP_P_ SH301969 -26.3000 102.060 27 -1 -26.3000 102.060 TC 27 -26.3352 102.129 1 25 -26.4428 102.368 TC 27 21 121
1969088S10097 1969 21 SI WA LEONIE 1969-04-05 06:00:00 TS -26.8869 103.208 main 1005 910 O________OP_O_ jtwc_sh SH301969 -26.8000 103.100 25 -1 -26.8000 103.100 TC 25 -26.8345 103.140 1 23 -27.2000 103.600 TC 25 22 122
1969088S10097 1969 21 SI WA LEONIE 1969-04-05 09:00:00 TS -27.4794 104.215 main 911 883 P________PP_P_ SH301969 -27.2997 104.178 22 -1 -27.2997 104.178 TC 22 -27.3334 104.231 1 20 -28.1644 104.309 TC 25 22 123
1969088S10097 1969 21 SI WA LEONIE 1969-04-05 10:00:00 TS -27.6755 104.554 main 874 822 P________PO_P_ SH301969 -27.4663 104.551 21 -1 -27.4663 104.551 TC 21 -27.5000 104.600 1 20 -28.4783 104.517 TC 25 21 122
1969088S10097 1969 21 SI WA LEONIE 1969-04-05 12:00:00 TS -28.0423 105.239 main 822 798 O________OP_O_ jtwc_sh SH301969 -27.8000 105.300 20 -1 -27.8000 105.300 TC 20 -27.8113 105.295 1 20 -29.0000 105.000 TC 25 1003 21 122
1969088S10097 1969 21 SI WA LEONIE 1969-04-05 13:00:00 TS -28.2408 105.567 1003 bom main 789 736 P_____O__PP_P_ SH301969 -27.9635 105.665 20 -1 -29.0000 105.000 1003 -27.9635 105.665 TC 20 -27.9660 105.650 1 20 -29.1578 105.333 TC 25 1002 21 120
1969088S10097 1969 21 SI WA LEONIE 1969-04-05 15:00:00 TS -28.5617 106.276 main 736 653 P_____P__PP_P_ SH301969 -28.2914 106.394 20 -1 -29.1775 105.760 1002 -28.2914 106.394 TC 20 -28.2783 106.373 1 20 -29.3479 106.085 TC 25 1002 21 115
1969088S10097 1969 21 SI WA LEONIE 1969-04-05 18:00:00 TS -28.9991 107.385 main 653 573 O_____P__OP_O_ jtwc_sh SH301969 -28.8000 107.500 20 -1 -29.4359 106.905 1001 -28.8000 107.500 TC 20 -28.7679 107.485 1 20 -29.5000 107.300 TC 25 1001 21 114
1969088S10097 1969 21 SI WA LEONIE 1969-04-05 21:00:00 TS -29.4384 108.516 main 573 548 P_____P__PP_P_ SH301969 -29.3192 108.644 20 -1 -29.6844 108.057 1000 -29.3192 108.644 TC 20 -29.3056 108.619 1 20 -29.6824 108.490 TC 27 1000 22 114
1969088S10097 1969 21 SI WA LEONIE 1969-04-05 22:00:00 TS -29.5896 108.901 main 541 481 P_____P__PO_P_ SH301969 -29.5035 109.030 20 -1 -29.7650 108.442 1000 -29.5035 109.030 TC 20 -29.5000 109.000 1 20 -29.7622 108.875 TC 28 999 22 116
1969088S10097 1969 21 SI WA LEONIE 1969-04-06 00:00:00 TS -29.9227 109.662 main 481 464 O_____P__OP_O_ jtwc_sh SH301969 -29.9000 109.800 20 -1 -29.9228 109.214 999 -29.9000 109.800 TC 20 -29.9136 109.758 1 21 -30.0000 109.600 TC 30 999 22 118
1969088S10097 1969 21 SI WA LEONIE 1969-04-06 01:00:00 TS -30.1084 110.030 999 bom main 464 416 P_____O__PP_P_ SH301969 -30.1129 110.181 20 -1 -30.0000 109.600 999 -30.1129 110.181 TC 20 -30.1314 110.140 1 22 -30.1801 109.895 TC 29 998 22 125
1969088S10097 1969 21 SI WA LEONIE 1969-04-06 03:00:00 TS -30.5617 110.729 main 417 326 P_____P__PP_P_ SH301969 -30.5688 110.944 22 -1 -30.4492 110.190 998 -30.5688 110.944 TC 22 -30.5857 110.913 1 24 -30.6286 110.442 TC 27 997 24 127
1969088S10097 1969 21 SI WA LEONIE 1969-04-06 06:00:00 TS -31.2943 111.844 main 326 239 O_____P__OP_O_ jtwc_sh SH301969 -31.3000 112.100 25 -1 -31.1181 111.086 996 -31.3000 112.100 TC 25 -31.3035 112.091 1 26 -31.4000 111.400 TC 25 996 25 126
1969088S10097 1969 21 SI WA LEONIE 1969-04-06 09:00:00 TS -32.0286 113.094 main 239 204 P_____P__PP_P_ SH301969 -32.0412 113.279 27 -1 -31.7807 111.994 995 -32.0412 113.279 TC 27 -32.0487 113.294 1 29 -32.0950 112.890 TC 30 27 124
1969088S10097 1969 21 SI WA LEONIE 1969-04-06 10:00:00 TS -32.2872 113.572 995 bom main 192 100 P_____O__PO_P_ SH301969 -32.2934 113.681 28 -1 -32.0000 112.300 995 4 -32.2934 113.681 TC 28 -32.3000 113.700 1 30 -32.3275 113.436 TC 31 28 123
1969088S10097 1969 21 SI WA LEONIE 1969-04-06 12:00:00 TS -32.8009 114.505 main 100 0 O________OP_O_ jtwc_sh SH301969 -32.8000 114.500 30 -1 -32.8000 114.500 TC 30 -32.8037 114.521 1 31 -32.8000 114.500 TC 35 27 124
1969088S10097 1969 21 SI WA LEONIE 1969-04-06 15:00:00 TS -33.5542 115.794 main 0 0 P________PP_P_ SH301969 -33.5555 115.778 32 -1 -33.5555 115.778 TC 32 -33.5594 115.775 1 34 -33.5397 115.879 TC 30 26 125
1969088S10097 1969 21 SI WA LEONIE 1969-04-06 18:00:00 TS -34.3049 117.081 main 0 0 O________OP_O_ jtwc_sh SH301969 -34.3000 117.100 35 0 -34.3000 117.100 TC 35 -34.3114 117.055 1 36 -34.3000 117.100 TC 25 26 125
1969088S10097 1969 21 SI WA LEONIE 1969-04-06 21:00:00 NR -35.0549 118.360 main 21 21 __________P___ SH301969 -1 TC -35.0549 118.360 1 39 TC 26 125
1969088S10097 1969 21 SI WA LEONIE 1969-04-06 22:00:00 NR -35.3000 118.800 main 57 __________O___ SH301969 -1 TC -35.3000 118.800 2 40 TC 26 124

About IBTrACS Database

This database is a web-friendly format of International Best Track Archive for Climate Stewardship (IBTrACS), a global best track data archive curated by NOAA dating back to 1842.

Updated: 2021-12-03